createdAt,value
2018-11-25T00:00:51.110Z,0.00
2018-11-25T00:01:51.029Z,0.00
2018-11-25T00:02:50.950Z,0.00
2018-11-25T00:03:50.875Z,0.00
2018-11-25T00:04:50.781Z,0.00
2018-11-25T00:05:50.707Z,0.00
2018-11-25T00:06:50.628Z,0.00
2018-11-25T00:07:50.532Z,0.00
2018-11-25T00:08:50.458Z,0.00
2018-11-25T00:09:50.380Z,0.00
2018-11-25T00:10:50.289Z,0.00
2018-11-25T00:11:50.211Z,0.00
2018-11-25T00:12:50.128Z,0.00
2018-11-25T00:13:50.049Z,0.00
2018-11-25T00:14:49.959Z,0.00
2018-11-25T00:15:49.880Z,0.00
2018-11-25T00:16:49.804Z,0.00
2018-11-25T00:17:49.726Z,0.00
2018-11-25T00:18:49.638Z,0.00
2018-11-25T00:19:49.549Z,0.00
2018-11-25T00:20:49.474Z,0.00
2018-11-25T00:21:49.399Z,0.00
2018-11-25T00:22:49.306Z,0.00
2018-11-25T00:23:49.233Z,0.00
2018-11-25T00:24:49.144Z,0.00
2018-11-25T00:25:49.057Z,0.00
2018-11-25T00:26:48.986Z,0.00
2018-11-25T00:27:48.910Z,0.00
2018-11-25T00:28:48.810Z,0.00
2018-11-25T00:29:48.740Z,0.00
2018-11-25T00:30:48.657Z,0.00
2018-11-25T00:31:48.569Z,0.00
2018-11-25T00:32:48.494Z,0.00
2018-11-25T00:33:48.399Z,0.00
2018-11-25T00:34:48.328Z,0.00
2018-11-25T00:35:48.237Z,0.00
2018-11-25T00:36:48.158Z,0.00
2018-11-25T00:37:48.911Z,0.00
2018-11-25T00:38:48.003Z,0.00
2018-11-25T00:39:47.919Z,0.00
2018-11-25T00:40:47.828Z,0.00
2018-11-25T00:41:47.760Z,0.00
2018-11-25T00:42:47.673Z,0.00
2018-11-25T00:43:47.584Z,0.00
2018-11-25T00:44:47.517Z,0.00
2018-11-25T00:45:47.426Z,0.00
2018-11-25T00:46:47.340Z,0.00
2018-11-25T00:47:47.272Z,0.00
2018-11-25T00:48:47.183Z,0.00
2018-11-25T00:49:47.093Z,0.00
2018-11-25T00:50:47.016Z,0.00
2018-11-25T00:51:46.937Z,0.00
2018-11-25T00:52:46.847Z,0.00
2018-11-25T00:53:46.778Z,0.00
2018-11-25T00:54:46.691Z,0.00
2018-11-25T00:55:46.601Z,0.00
2018-11-25T00:56:46.540Z,0.00
2018-11-25T00:57:47.450Z,0.00
2018-11-25T00:58:46.356Z,0.00
2018-11-25T00:59:46.290Z,0.00
2018-11-25T01:00:46.200Z,0.00
2018-11-25T01:01:46.113Z,0.00
2018-11-25T01:02:46.043Z,0.00
2018-11-25T01:03:45.954Z,0.00
2018-11-25T01:04:45.865Z,0.00
2018-11-25T01:05:45.793Z,0.00
2018-11-25T01:06:45.718Z,0.00
2018-11-25T01:07:45.619Z,0.00
2018-11-25T01:08:45.541Z,0.00
2018-11-25T01:09:45.463Z,0.00
2018-11-25T01:10:45.377Z,0.00
2018-11-25T01:11:45.297Z,0.00
2018-11-25T01:12:45.217Z,0.00
2018-11-25T01:13:45.131Z,0.00
2018-11-25T01:14:45.057Z,0.00
2018-11-25T01:15:44.972Z,0.00
2018-11-25T01:16:44.885Z,0.00
2018-11-25T01:17:44.808Z,0.00
2018-11-25T01:18:44.724Z,0.00
2018-11-25T01:19:44.641Z,0.00
2018-11-25T01:20:44.565Z,0.00
2018-11-25T01:21:44.479Z,0.00
2018-11-25T01:22:44.404Z,0.00
2018-11-25T01:23:44.321Z,0.00
2018-11-25T01:24:44.236Z,0.00
2018-11-25T01:25:44.148Z,0.00
2018-11-25T01:26:44.073Z,0.00
2018-11-25T01:27:43.991Z,0.00
2018-11-25T01:28:43.904Z,0.00
2018-11-25T01:29:43.830Z,0.00
2018-11-25T01:30:43.748Z,0.00
2018-11-25T01:31:43.658Z,0.00
2018-11-25T01:32:43.607Z,0.00
2018-11-25T01:33:43.499Z,0.00
2018-11-25T01:34:43.413Z,0.00
2018-11-25T01:35:43.334Z,0.00
2018-11-25T01:36:43.258Z,0.00
2018-11-25T01:37:43.160Z,0.00
2018-11-25T01:38:43.092Z,0.00
2018-11-25T01:39:43.011Z,0.00
2018-11-25T01:40:42.929Z,0.00
2018-11-25T01:41:42.856Z,0.00
2018-11-25T01:42:42.761Z,0.00
2018-11-25T01:43:42.683Z,0.00
2018-11-25T01:44:42.593Z,0.00
2018-11-25T01:45:42.512Z,0.00
2018-11-25T01:46:42.429Z,0.00
2018-11-25T01:47:42.359Z,0.00
2018-11-25T01:48:42.271Z,0.00
2018-11-25T01:49:42.198Z,0.00
2018-11-25T01:50:42.105Z,0.00
2018-11-25T01:51:42.022Z,0.00
2018-11-25T01:52:41.940Z,0.00
2018-11-25T01:53:41.873Z,0.00
2018-11-25T01:54:41.777Z,0.00
2018-11-25T01:55:41.700Z,0.00
2018-11-25T01:56:41.613Z,0.00
2018-11-25T01:57:41.530Z,0.00
2018-11-25T01:58:41.449Z,0.00
2018-11-25T01:59:41.378Z,0.00
2018-11-25T02:00:41.285Z,0.00
2018-11-25T02:01:41.227Z,0.00
2018-11-25T02:02:41.121Z,0.00
2018-11-25T02:03:41.036Z,0.00
2018-11-25T02:04:40.960Z,0.00
2018-11-25T02:05:40.897Z,0.00
2018-11-25T02:06:40.796Z,0.00
2018-11-25T02:07:40.720Z,0.00
2018-11-25T02:08:40.630Z,0.00
2018-11-25T02:09:40.550Z,0.00
2018-11-25T02:10:40.473Z,0.00
2018-11-25T02:11:40.397Z,0.00
2018-11-25T02:12:40.303Z,0.00
2018-11-25T02:13:40.232Z,0.00
2018-11-25T02:14:40.139Z,0.00
2018-11-25T02:15:40.058Z,0.00
2018-11-25T02:16:39.989Z,0.00
2018-11-25T02:17:39.904Z,0.00
2018-11-25T02:18:39.814Z,0.00
2018-11-25T02:19:39.742Z,0.00
2018-11-25T02:20:39.648Z,0.00
2018-11-25T02:21:39.567Z,0.00
2018-11-25T02:22:39.488Z,0.00
2018-11-25T02:23:39.416Z,0.00
2018-11-25T02:24:39.321Z,0.00
2018-11-25T02:25:39.251Z,0.00
2018-11-25T02:26:39.157Z,0.00
2018-11-25T02:27:39.079Z,0.00
2018-11-25T02:28:39.000Z,0.00
2018-11-25T02:29:38.918Z,0.00
2018-11-25T02:30:38.830Z,0.00
2018-11-25T02:31:38.751Z,0.00
2018-11-25T02:32:38.669Z,0.00
2018-11-25T02:33:38.596Z,0.00
2018-11-25T02:34:38.502Z,0.00
2018-11-25T02:35:38.429Z,0.00
2018-11-25T02:36:38.337Z,0.00
2018-11-25T02:37:38.261Z,0.00
2018-11-25T02:38:38.174Z,0.00
2018-11-25T02:39:38.101Z,0.00
2018-11-25T02:40:38.011Z,0.00
2018-11-25T02:41:37.941Z,0.00
2018-11-25T02:42:37.847Z,0.00
2018-11-25T02:43:37.772Z,0.00
2018-11-25T02:44:37.692Z,0.00
2018-11-25T02:45:37.609Z,0.00
2018-11-25T02:46:37.518Z,0.00
2018-11-25T02:47:37.453Z,0.00
2018-11-25T02:48:37.356Z,0.00
2018-11-25T02:49:37.280Z,0.00
2018-11-25T02:50:37.190Z,0.00
2018-11-25T02:51:37.117Z,0.00
2018-11-25T02:52:37.020Z,0.00
2018-11-25T02:53:36.952Z,0.00
2018-11-25T02:54:36.859Z,0.00
2018-11-25T02:55:36.792Z,0.00
2018-11-25T02:56:36.700Z,0.00
2018-11-25T02:57:36.623Z,0.00
2018-11-25T02:58:36.538Z,0.00
2018-11-25T02:59:36.467Z,0.00
2018-11-25T03:00:36.376Z,0.00
2018-11-25T03:01:36.295Z,0.00
2018-11-25T03:02:36.216Z,0.00
2018-11-25T03:03:36.135Z,0.00
2018-11-25T03:04:36.045Z,0.00
2018-11-25T03:05:35.968Z,0.00
2018-11-25T03:06:35.890Z,0.00
2018-11-25T03:07:35.805Z,0.00
2018-11-25T03:08:35.711Z,0.00
2018-11-25T03:09:35.637Z,0.00
2018-11-25T03:10:35.555Z,0.00
2018-11-25T03:11:35.476Z,0.00
2018-11-25T03:12:35.384Z,0.00
2018-11-25T03:13:35.312Z,0.00
2018-11-25T03:14:35.223Z,0.00
2018-11-25T03:15:35.145Z,0.00
2018-11-25T03:16:35.062Z,0.00
2018-11-25T03:17:34.986Z,0.00
2018-11-25T03:18:34.892Z,0.00
2018-11-25T03:19:34.828Z,0.00
2018-11-25T03:20:34.732Z,0.00
2018-11-25T03:21:34.654Z,0.00
2018-11-25T03:22:34.564Z,0.00
2018-11-25T03:23:34.498Z,0.00
2018-11-25T03:24:34.405Z,0.00
2018-11-25T03:25:34.320Z,0.00
2018-11-25T03:26:34.249Z,0.00
2018-11-25T03:27:34.156Z,0.00
2018-11-25T03:28:34.073Z,0.00
2018-11-25T03:29:33.999Z,0.00
2018-11-25T03:30:33.910Z,0.00
2018-11-25T03:31:33.828Z,0.00
2018-11-25T03:32:33.757Z,0.00
2018-11-25T03:33:33.663Z,0.00
2018-11-25T03:34:33.582Z,0.00
2018-11-25T03:35:33.510Z,0.00
2018-11-25T03:36:33.422Z,0.00
2018-11-25T03:37:33.335Z,0.00
2018-11-25T03:38:33.263Z,0.00
2018-11-25T03:39:33.175Z,0.00
2018-11-25T03:40:33.094Z,0.00
2018-11-25T03:41:33.014Z,0.00
2018-11-25T03:42:32.925Z,0.00
2018-11-25T03:43:32.849Z,0.00
2018-11-25T03:44:32.770Z,0.00
2018-11-25T03:45:32.678Z,0.00
2018-11-25T03:46:32.597Z,0.00
2018-11-25T03:47:32.523Z,0.00
2018-11-25T03:48:32.438Z,0.00
2018-11-25T03:49:32.344Z,0.00
2018-11-25T03:50:32.274Z,0.00
2018-11-25T03:51:32.183Z,0.00
2018-11-25T03:52:32.103Z,0.00
2018-11-25T03:53:32.027Z,0.00
2018-11-25T03:54:31.936Z,0.00
2018-11-25T03:55:31.858Z,0.00
2018-11-25T03:56:31.783Z,0.00
2018-11-25T03:57:31.694Z,0.00
2018-11-25T03:58:31.611Z,0.00
2018-11-25T03:59:31.535Z,0.00
2018-11-25T04:00:31.446Z,0.00
2018-11-25T04:01:31.366Z,0.00
2018-11-25T04:02:31.289Z,0.00
2018-11-25T04:03:31.195Z,0.00
2018-11-25T04:04:31.117Z,0.00
2018-11-25T04:05:31.043Z,0.00
2018-11-25T04:06:30.950Z,0.00
2018-11-25T04:07:30.868Z,0.00
2018-11-25T04:08:30.795Z,0.00
2018-11-25T04:09:30.705Z,0.00
2018-11-25T04:10:30.628Z,0.00
2018-11-25T04:11:30.545Z,0.00
2018-11-25T04:12:30.460Z,0.00
2018-11-25T04:13:30.379Z,0.00
2018-11-25T04:14:30.305Z,0.00
2018-11-25T04:15:30.210Z,0.00
2018-11-25T04:16:30.127Z,0.00
2018-11-25T04:17:30.056Z,0.00
2018-11-25T04:18:29.964Z,0.00
2018-11-25T04:19:29.879Z,0.00
2018-11-25T04:20:29.812Z,0.00
2018-11-25T04:21:29.718Z,0.00
2018-11-25T04:22:29.634Z,0.00
2018-11-25T04:23:29.551Z,0.00
2018-11-25T04:24:29.478Z,0.00
2018-11-25T04:25:29.388Z,0.00
2018-11-25T04:26:29.308Z,0.00
2018-11-25T04:27:29.793Z,0.00
2018-11-25T04:28:29.137Z,0.00
2018-11-25T04:29:29.063Z,0.00
2018-11-25T04:30:28.980Z,0.00
2018-11-25T04:31:28.900Z,0.00
2018-11-25T04:32:28.816Z,0.00
2018-11-25T04:33:28.725Z,0.00
2018-11-25T04:34:28.646Z,0.00
2018-11-25T04:35:28.566Z,0.00
2018-11-25T04:36:28.529Z,0.00
2018-11-25T04:37:28.397Z,0.00
2018-11-25T04:38:28.330Z,0.00
2018-11-25T04:39:28.230Z,0.00
2018-11-25T04:40:28.145Z,0.00
2018-11-25T04:41:28.073Z,0.00
2018-11-25T04:42:27.985Z,0.00
2018-11-25T04:43:27.899Z,0.00
2018-11-25T04:44:27.816Z,0.00
2018-11-25T04:45:27.748Z,0.00
2018-11-25T04:46:27.652Z,0.00
2018-11-25T04:47:27.575Z,0.00
2018-11-25T04:48:27.488Z,0.00
2018-11-25T04:49:27.406Z,0.00
2018-11-25T04:50:27.323Z,0.00
2018-11-25T04:51:27.249Z,0.00
2018-11-25T04:52:27.159Z,0.00
2018-11-25T04:53:27.083Z,0.00
2018-11-25T04:54:26.993Z,0.00
2018-11-25T04:55:26.909Z,0.00
2018-11-25T04:56:26.840Z,0.00
2018-11-25T04:57:26.752Z,0.00
2018-11-25T04:58:26.664Z,0.00
2018-11-25T04:59:26.588Z,0.00
2018-11-25T05:00:26.499Z,0.00
2018-11-25T05:01:26.417Z,0.00
2018-11-25T05:02:26.339Z,0.00
2018-11-25T05:03:26.251Z,0.00
2018-11-25T05:04:26.167Z,0.00
2018-11-25T05:05:26.088Z,0.00
2018-11-25T05:06:26.009Z,0.00
2018-11-25T05:07:25.920Z,0.00
2018-11-25T05:08:25.844Z,0.00
2018-11-25T05:09:25.754Z,0.00
2018-11-25T05:10:25.672Z,0.00
2018-11-25T05:11:25.587Z,0.00
2018-11-25T05:12:25.514Z,0.00
2018-11-25T05:13:25.427Z,0.00
2018-11-25T05:14:25.352Z,0.00
2018-11-25T05:15:25.257Z,0.00
2018-11-25T05:16:25.185Z,0.00
2018-11-25T05:17:25.095Z,0.00
2018-11-25T05:18:25.046Z,0.00
2018-11-25T05:19:24.929Z,0.00
2018-11-25T05:20:24.858Z,0.00
2018-11-25T05:21:24.765Z,0.00
2018-11-25T05:22:24.685Z,0.00
2018-11-25T05:23:24.603Z,0.00
2018-11-25T05:24:24.528Z,0.00
2018-11-25T05:25:24.437Z,0.00
2018-11-25T05:26:24.360Z,0.00
2018-11-25T05:27:24.273Z,0.00
2018-11-25T05:28:24.195Z,0.00
2018-11-25T05:29:24.115Z,0.00
2018-11-25T05:30:24.022Z,0.00
2018-11-25T05:31:23.941Z,0.00
2018-11-25T05:32:23.866Z,0.00
2018-11-25T05:33:23.776Z,0.00
2018-11-25T05:34:23.694Z,0.00
2018-11-25T05:35:23.618Z,0.00
2018-11-25T05:36:23.536Z,0.00
2018-11-25T05:37:23.447Z,0.00
2018-11-25T05:38:23.370Z,0.00
2018-11-25T05:39:23.279Z,0.00
2018-11-25T05:40:23.201Z,0.00
2018-11-25T05:41:23.125Z,0.00
2018-11-25T05:42:23.035Z,0.00
2018-11-25T05:43:22.953Z,0.00
2018-11-25T05:44:22.877Z,0.00
2018-11-25T05:45:22.784Z,0.00
2018-11-25T05:46:22.711Z,0.00
2018-11-25T05:47:22.626Z,0.00
2018-11-25T05:48:22.538Z,0.00
2018-11-25T05:49:22.453Z,0.00
2018-11-25T05:50:22.386Z,0.00
2018-11-25T05:51:22.288Z,0.00
2018-11-25T05:52:22.218Z,0.00
2018-11-25T05:53:22.124Z,0.00
2018-11-25T05:54:22.051Z,0.00
2018-11-25T05:55:21.963Z,0.00
2018-11-25T05:56:21.883Z,0.00
2018-11-25T05:57:21.794Z,0.00
2018-11-25T05:58:21.714Z,0.00
2018-11-25T05:59:21.629Z,0.00
2018-11-25T06:00:21.560Z,0.00
2018-11-25T06:01:21.462Z,0.00
2018-11-25T06:02:21.392Z,0.00
2018-11-25T06:03:21.298Z,0.00
2018-11-25T06:04:21.216Z,0.00
2018-11-25T06:05:21.139Z,0.00
2018-11-25T06:06:21.050Z,0.00
2018-11-25T06:07:20.967Z,0.00
2018-11-25T06:08:20.893Z,0.00
2018-11-25T06:09:20.806Z,0.00
2018-11-25T06:10:20.719Z,0.00
2018-11-25T06:11:20.637Z,0.00
2018-11-25T06:12:20.562Z,0.00
2018-11-25T06:13:20.479Z,0.00
2018-11-25T06:14:20.389Z,0.00
2018-11-25T06:15:20.318Z,0.00
2018-11-25T06:16:20.231Z,0.00
2018-11-25T06:17:20.142Z,0.00
2018-11-25T06:18:20.066Z,0.00
2018-11-25T06:19:19.983Z,0.00
2018-11-25T06:20:19.895Z,0.00
2018-11-25T06:21:19.818Z,0.00
2018-11-25T06:22:19.740Z,0.00
2018-11-25T06:23:19.648Z,0.00
2018-11-25T06:24:19.572Z,0.00
2018-11-25T06:25:19.491Z,0.00
2018-11-25T06:26:19.400Z,0.00
2018-11-25T06:27:19.325Z,4.00
2018-11-25T06:28:19.241Z,4.00
2018-11-25T06:29:19.150Z,0.00
2018-11-25T06:30:19.166Z,0.00
2018-11-25T06:31:18.985Z,0.00
2018-11-25T06:32:18.913Z,4.00
2018-11-25T06:33:18.831Z,4.00
2018-11-25T06:34:18.747Z,4.00
2018-11-25T06:35:18.653Z,0.00
2018-11-25T06:36:18.578Z,0.00
2018-11-25T06:37:18.489Z,4.00
2018-11-25T06:38:18.416Z,4.00
2018-11-25T06:39:18.323Z,4.00
2018-11-25T06:40:18.240Z,4.00
2018-11-25T06:41:18.160Z,4.00
2018-11-25T06:42:18.123Z,4.00
2018-11-25T06:43:18.026Z,4.00
2018-11-25T06:44:17.909Z,8.00
2018-11-25T06:45:17.935Z,4.00
2018-11-25T06:46:17.843Z,4.00
2018-11-25T06:47:17.660Z,8.00
2018-11-25T06:48:17.655Z,4.00
2018-11-25T06:49:17.555Z,8.00
2018-11-25T06:50:17.414Z,12.00
2018-11-25T06:51:17.360Z,8.00
2018-11-25T06:52:17.263Z,8.00
2018-11-25T06:53:17.161Z,8.00
2018-11-25T06:54:17.175Z,12.00
2018-11-25T06:55:17.001Z,12.00
2018-11-25T06:56:16.985Z,8.00
2018-11-25T06:57:16.830Z,12.00
2018-11-25T06:58:16.748Z,12.00
2018-11-25T06:59:16.664Z,16.00
2018-11-25T07:00:16.606Z,16.00
2018-11-25T07:01:16.606Z,16.00
2018-11-25T07:02:16.420Z,16.00
2018-11-25T07:03:16.416Z,16.00
2018-11-25T07:04:16.320Z,20.00
2018-11-25T07:05:16.174Z,24.00
2018-11-25T07:06:16.129Z,24.00
2018-11-25T07:07:16.036Z,24.00
2018-11-25T07:08:15.918Z,20.00
2018-11-25T07:09:15.946Z,24.00
2018-11-25T07:10:15.849Z,24.00
2018-11-25T07:11:15.671Z,28.00
2018-11-25T07:12:15.659Z,24.00
2018-11-25T07:13:15.563Z,28.00
2018-11-25T07:14:15.424Z,28.00
2018-11-25T07:15:15.369Z,32.00
2018-11-25T07:16:15.375Z,28.00
2018-11-25T07:17:15.177Z,32.00
2018-11-25T07:18:15.184Z,28.00
2018-11-25T07:19:15.016Z,28.00
2018-11-25T07:20:14.954Z,28.00
2018-11-25T07:21:14.899Z,24.00
2018-11-25T07:22:14.805Z,32.00
2018-11-25T07:23:14.676Z,36.00
2018-11-25T07:24:14.716Z,40.00
2018-11-25T07:25:14.614Z,40.00
2018-11-25T07:26:14.432Z,40.00
2018-11-25T07:27:14.423Z,40.00
2018-11-25T07:28:18.563Z,40.00
2018-11-25T07:29:14.179Z,40.00
2018-11-25T07:30:14.138Z,44.00
2018-11-25T07:31:14.041Z,44.00
2018-11-25T07:32:13.935Z,48.00
2018-11-25T07:33:13.850Z,48.00
2018-11-25T07:34:13.893Z,48.00
2018-11-25T07:35:13.684Z,52.00
2018-11-25T07:36:14.689Z,52.00
2018-11-25T07:37:13.570Z,52.00
2018-11-25T07:38:13.437Z,52.00
2018-11-25T07:39:13.376Z,52.00
2018-11-25T07:40:13.379Z,56.00
2018-11-25T07:41:13.191Z,56.00
2018-11-25T07:42:13.196Z,56.00
2018-11-25T07:43:13.099Z,56.00
2018-11-25T07:44:12.940Z,56.00
2018-11-25T07:45:12.911Z,60.00
2018-11-25T07:46:12.809Z,60.00
2018-11-25T07:47:12.692Z,60.00
2018-11-25T07:48:12.719Z,64.00
2018-11-25T07:49:12.623Z,68.00
2018-11-25T07:50:12.445Z,64.00
2018-11-25T07:51:12.436Z,64.00
2018-11-25T07:52:13.362Z,64.00
2018-11-25T07:53:12.201Z,68.00
2018-11-25T07:54:14.195Z,68.00
2018-11-25T07:55:12.045Z,72.00
2018-11-25T07:56:11.987Z,72.00
2018-11-25T07:57:11.878Z,76.00
2018-11-25T07:58:11.867Z,72.00
2018-11-25T07:59:11.700Z,72.00
2018-11-25T08:00:11.676Z,80.00
2018-11-25T08:01:11.578Z,84.00
2018-11-25T08:02:11.457Z,76.00
2018-11-25T08:03:11.489Z,84.00
2018-11-25T08:04:11.291Z,84.00
2018-11-25T08:05:11.204Z,88.00
2018-11-25T08:06:11.195Z,80.00
2018-11-25T08:07:11.038Z,88.00
2018-11-25T08:08:11.005Z,92.00
2018-11-25T08:09:10.872Z,88.00
2018-11-25T08:10:10.789Z,100.00
2018-11-25T08:11:10.707Z,100.00
2018-11-25T08:12:10.728Z,100.00
2018-11-25T08:13:10.546Z,96.00
2018-11-25T08:14:10.535Z,100.00
2018-11-25T08:15:10.379Z,100.00
2018-11-25T08:16:10.291Z,100.00
2018-11-25T08:17:10.223Z,104.00
2018-11-25T08:18:11.055Z,100.00
2018-11-25T08:19:10.051Z,104.00
2018-11-25T08:20:10.065Z,100.00
2018-11-25T08:21:09.884Z,100.00
2018-11-25T08:22:09.816Z,100.00
2018-11-25T08:23:09.719Z,100.00
2018-11-25T08:24:09.635Z,100.00
2018-11-25T08:25:09.555Z,108.00
2018-11-25T08:26:09.489Z,100.00
2018-11-25T08:27:09.387Z,108.00
2018-11-25T08:28:09.308Z,112.00
2018-11-25T08:29:09.230Z,112.00
2018-11-25T08:30:09.140Z,116.00
2018-11-25T08:31:09.057Z,116.00
2018-11-25T08:32:08.977Z,116.00
2018-11-25T08:33:09.641Z,120.00
2018-11-25T08:34:08.810Z,112.00
2018-11-25T08:35:08.735Z,112.00
2018-11-25T08:36:08.645Z,112.00
2018-11-25T08:37:08.563Z,112.00
2018-11-25T08:38:08.480Z,116.00
2018-11-25T08:39:08.404Z,128.00
2018-11-25T08:40:08.319Z,124.00
2018-11-25T08:41:08.234Z,132.00
2018-11-25T08:42:08.158Z,136.00
2018-11-25T08:43:08.285Z,136.00
2018-11-25T08:44:07.995Z,136.00
2018-11-25T08:45:07.909Z,144.00
2018-11-25T08:46:07.822Z,148.00
2018-11-25T08:47:07.738Z,156.00
2018-11-25T08:48:07.671Z,156.00
2018-11-25T08:49:07.575Z,148.00
2018-11-25T08:50:07.501Z,140.00
2018-11-25T08:51:07.410Z,140.00
2018-11-25T08:52:07.354Z,140.00
2018-11-25T08:53:07.248Z,148.00
2018-11-25T08:54:07.170Z,148.00
2018-11-25T08:55:07.106Z,144.00
2018-11-25T08:56:07.006Z,144.00
2018-11-25T08:57:06.940Z,140.00
2018-11-25T08:58:06.847Z,136.00
2018-11-25T08:59:06.752Z,132.00
2018-11-25T09:00:06.679Z,136.00
2018-11-25T09:01:06.586Z,132.00
2018-11-25T09:02:06.513Z,132.00
2018-11-25T09:03:06.426Z,136.00
2018-11-25T09:04:06.349Z,136.00
2018-11-25T09:05:06.260Z,132.00
2018-11-25T09:06:06.189Z,136.00
2018-11-25T09:07:06.094Z,136.00
2018-11-25T09:08:06.016Z,136.00
2018-11-25T09:09:05.929Z,132.00
2018-11-25T09:10:05.853Z,128.00
2018-11-25T09:11:05.785Z,136.00
2018-11-25T09:12:05.687Z,136.00
2018-11-25T09:13:05.600Z,136.00
2018-11-25T09:14:05.529Z,136.00
2018-11-25T09:15:05.438Z,132.00
2018-11-25T09:16:06.366Z,140.00
2018-11-25T09:17:05.272Z,152.00
2018-11-25T09:18:05.203Z,156.00
2018-11-25T09:19:05.107Z,148.00
2018-11-25T09:20:05.031Z,152.00
2018-11-25T09:21:04.946Z,148.00
2018-11-25T09:22:04.869Z,148.00
2018-11-25T09:23:04.778Z,144.00
2018-11-25T09:24:04.705Z,156.00
2018-11-25T09:25:04.617Z,164.00
2018-11-25T09:26:04.542Z,168.00
2018-11-25T09:27:04.450Z,176.00
2018-11-25T09:28:04.376Z,180.00
2018-11-25T09:29:04.288Z,180.00
2018-11-25T09:30:04.214Z,180.00
2018-11-25T09:31:04.122Z,168.00
2018-11-25T09:32:04.057Z,172.00
2018-11-25T09:33:03.971Z,164.00
2018-11-25T09:34:03.886Z,164.00
2018-11-25T09:35:03.796Z,168.00
2018-11-25T09:36:03.741Z,164.00
2018-11-25T09:37:03.634Z,164.00
2018-11-25T09:38:03.575Z,168.00
2018-11-25T09:39:03.465Z,160.00
2018-11-25T09:40:03.391Z,160.00
2018-11-25T09:41:03.301Z,160.00
2018-11-25T09:42:03.231Z,164.00
2018-11-25T09:43:03.146Z,164.00
2018-11-25T09:44:03.055Z,156.00
2018-11-25T09:45:02.981Z,148.00
2018-11-25T09:46:02.893Z,160.00
2018-11-25T09:47:02.811Z,164.00
2018-11-25T09:48:02.734Z,168.00
2018-11-25T09:49:02.647Z,172.00
2018-11-25T09:50:02.571Z,176.00
2018-11-25T09:51:02.493Z,188.00
2018-11-25T09:52:02.419Z,188.00
2018-11-25T09:53:02.315Z,200.00
2018-11-25T09:54:02.245Z,204.00
2018-11-25T09:55:02.155Z,200.00
2018-11-25T09:56:02.072Z,204.00
2018-11-25T09:57:02.028Z,212.00
2018-11-25T09:58:01.913Z,208.00
2018-11-25T09:59:01.827Z,200.00
2018-11-25T10:00:02.757Z,188.00
2018-11-25T10:01:01.670Z,184.00
2018-11-25T10:02:01.584Z,188.00
2018-11-25T10:03:01.514Z,180.00
2018-11-25T10:04:01.419Z,168.00
2018-11-25T10:05:01.339Z,176.00
2018-11-25T10:06:01.273Z,176.00
2018-11-25T10:07:01.174Z,180.00
2018-11-25T10:08:01.102Z,180.00
2018-11-25T10:09:01.018Z,184.00
2018-11-25T10:10:00.927Z,192.00
2018-11-25T10:11:00.847Z,196.00
2018-11-25T10:12:00.769Z,204.00
2018-11-25T10:13:00.685Z,216.00
2018-11-25T10:14:00.598Z,220.00
2018-11-25T10:15:00.529Z,224.00
2018-11-25T10:16:00.441Z,228.00
2018-11-25T10:17:01.206Z,220.00
2018-11-25T10:18:00.360Z,216.00
2018-11-25T10:19:00.196Z,216.00
2018-11-25T10:20:00.119Z,224.00
2018-11-25T10:21:00.034Z,232.00
2018-11-25T10:21:59.946Z,232.00
2018-11-25T10:22:59.865Z,224.00
2018-11-25T10:23:59.792Z,224.00
2018-11-25T10:24:59.701Z,220.00
2018-11-25T10:25:59.620Z,216.00
2018-11-25T10:26:59.538Z,228.00
2018-11-25T10:27:59.467Z,240.00
2018-11-25T10:28:59.375Z,240.00
2018-11-25T10:29:59.301Z,232.00
2018-11-25T10:30:59.209Z,216.00
2018-11-25T10:31:59.130Z,216.00
2018-11-25T10:32:59.062Z,220.00
2018-11-25T10:33:58.970Z,220.00
2018-11-25T10:34:58.884Z,212.00
2018-11-25T10:35:58.800Z,204.00
2018-11-25T10:36:58.736Z,200.00
2018-11-25T10:37:58.641Z,192.00
2018-11-25T10:38:58.566Z,192.00
2018-11-25T10:39:58.477Z,192.00
2018-11-25T10:40:58.397Z,192.00
2018-11-25T10:41:58.320Z,196.00
2018-11-25T10:42:58.235Z,212.00
2018-11-25T10:43:58.151Z,224.00
2018-11-25T10:44:58.071Z,224.00
2018-11-25T10:45:57.998Z,216.00
2018-11-25T10:46:57.907Z,208.00
2018-11-25T10:47:57.830Z,208.00
2018-11-25T10:48:57.744Z,208.00
2018-11-25T10:49:57.673Z,212.00
2018-11-25T10:50:57.589Z,208.00
2018-11-25T10:51:57.503Z,204.00
2018-11-25T10:52:57.419Z,196.00
2018-11-25T10:53:57.342Z,204.00
2018-11-25T10:54:57.256Z,212.00
2018-11-25T10:55:57.176Z,220.00
2018-11-25T10:56:57.093Z,228.00
2018-11-25T10:57:57.011Z,192.00
2018-11-25T10:58:56.927Z,236.00
2018-11-25T10:59:56.858Z,236.00
2018-11-25T11:00:56.764Z,232.00
2018-11-25T11:01:56.687Z,232.00
2018-11-25T11:02:56.602Z,244.00
2018-11-25T11:03:56.551Z,248.00
2018-11-25T11:04:56.440Z,252.00
2018-11-25T11:05:56.370Z,256.00
2018-11-25T11:06:56.276Z,264.00
2018-11-25T11:07:56.198Z,264.00
2018-11-25T11:08:56.126Z,256.00
2018-11-25T11:09:56.032Z,252.00
2018-11-25T11:10:55.948Z,260.00
2018-11-25T11:11:55.871Z,264.00
2018-11-25T11:12:55.799Z,256.00
2018-11-25T11:13:55.708Z,236.00
2018-11-25T11:14:55.635Z,220.00
2018-11-25T11:15:55.544Z,228.00
2018-11-25T11:16:55.460Z,232.00
2018-11-25T11:17:55.381Z,228.00
2018-11-25T11:18:55.309Z,204.00
2018-11-25T11:19:55.220Z,196.00
2018-11-25T11:20:55.146Z,212.00
2018-11-25T11:21:55.057Z,224.00
2018-11-25T11:22:54.991Z,232.00
2018-11-25T11:23:54.901Z,240.00
2018-11-25T11:24:54.820Z,244.00
2018-11-25T11:25:54.735Z,252.00
2018-11-25T11:26:54.664Z,256.00
2018-11-25T11:27:54.571Z,268.00
2018-11-25T11:28:54.486Z,272.00
2018-11-25T11:29:54.414Z,272.00
2018-11-25T11:30:54.365Z,268.00
2018-11-25T11:31:54.243Z,272.00
2018-11-25T11:32:54.163Z,268.00
2018-11-25T11:33:54.094Z,260.00
2018-11-25T11:34:54.004Z,260.00
2018-11-25T11:35:53.937Z,256.00
2018-11-25T11:36:53.841Z,240.00
2018-11-25T11:37:53.757Z,228.00
2018-11-25T11:38:53.675Z,216.00
2018-11-25T11:39:53.607Z,212.00
2018-11-25T11:40:53.524Z,204.00
2018-11-25T11:41:53.431Z,196.00
2018-11-25T11:42:53.352Z,204.00
2018-11-25T11:43:53.279Z,208.00
2018-11-25T11:44:53.191Z,208.00
2018-11-25T11:45:53.156Z,208.00
2018-11-25T11:46:53.029Z,188.00
2018-11-25T11:47:53.999Z,200.00
2018-11-25T11:48:52.863Z,204.00
2018-11-25T11:49:52.784Z,212.00
2018-11-25T11:50:52.704Z,220.00
2018-11-25T11:51:52.723Z,216.00
2018-11-25T11:52:52.542Z,204.00
2018-11-25T11:53:52.526Z,196.00
2018-11-25T11:54:52.382Z,188.00
2018-11-25T11:55:52.294Z,172.00
2018-11-25T11:56:52.247Z,164.00
2018-11-25T11:57:52.144Z,168.00
2018-11-25T11:58:52.053Z,172.00
2018-11-25T11:59:52.076Z,172.00
2018-11-25T12:00:51.896Z,160.00
2018-11-25T12:01:51.812Z,168.00
2018-11-25T12:02:51.729Z,172.00
2018-11-25T12:03:51.672Z,172.00
2018-11-25T12:04:51.567Z,168.00
2018-11-25T12:05:51.585Z,160.00
2018-11-25T12:06:51.405Z,156.00
2018-11-25T12:07:51.322Z,156.00
2018-11-25T12:08:51.242Z,156.00
2018-11-25T12:09:51.246Z,160.00
2018-11-25T12:10:51.107Z,160.00
2018-11-25T12:11:51.017Z,168.00
2018-11-25T12:12:51.020Z,172.00
2018-11-25T12:13:50.923Z,168.00
2018-11-25T12:14:50.760Z,172.00
2018-11-25T12:15:50.691Z,180.00
2018-11-25T12:16:50.598Z,184.00
2018-11-25T12:17:50.541Z,184.00
2018-11-25T12:18:50.439Z,188.00
2018-11-25T12:19:50.352Z,164.00
2018-11-25T12:20:50.360Z,192.00
2018-11-25T12:21:53.443Z,188.00
2018-11-25T12:22:50.111Z,188.00
2018-11-25T12:23:50.067Z,184.00
2018-11-25T12:24:49.950Z,180.00
2018-11-25T12:25:49.868Z,176.00
2018-11-25T12:26:49.789Z,168.00
2018-11-25T12:27:49.786Z,156.00
2018-11-25T12:28:49.627Z,160.00
2018-11-25T12:29:49.588Z,160.00
2018-11-25T12:30:49.477Z,160.00
2018-11-25T12:31:49.382Z,144.00
2018-11-25T12:32:49.410Z,148.00
2018-11-25T12:33:49.222Z,156.00
2018-11-25T12:34:49.140Z,156.00
2018-11-25T12:35:49.124Z,164.00
2018-11-25T12:36:48.984Z,164.00
2018-11-25T12:37:48.900Z,164.00
2018-11-25T12:38:48.826Z,160.00
2018-11-25T12:39:48.735Z,100.00
2018-11-25T12:40:48.671Z,80.00
2018-11-25T12:41:48.577Z,100.00
2018-11-25T12:42:48.555Z,132.00
2018-11-25T12:43:48.461Z,148.00
2018-11-25T12:44:48.337Z,140.00
2018-11-25T12:45:48.254Z,176.00
2018-11-25T12:46:48.172Z,188.00
2018-11-25T12:47:48.090Z,196.00
2018-11-25T12:48:48.086Z,200.00
2018-11-25T12:49:47.930Z,196.00
2018-11-25T12:50:47.893Z,188.00
2018-11-25T12:51:47.771Z,192.00
2018-11-25T12:52:47.685Z,204.00
2018-11-25T12:53:47.611Z,200.00
2018-11-25T12:54:47.609Z,188.00
2018-11-25T12:55:47.516Z,180.00